Latest Weather Observations for Cerberus

IDV60901

Issued at 7:41 am EST Monday 20 August 2018 (issued every 10 minutes, with the page automatically refreshed every 10 minutes)

About weather observations | Map of Melbourne area stations | Latest observations for Melbourne area | Other Formats
Station Details ID: 086361 Name: CERBERUS Lat: -38.36 Lon: 145.18 Height: 12.69 m
Data from the previous 72 hours. | See also: Recent months at Cerberus
Date/Time
EST
Temp
°C
App
Temp
°C
Dew
Point
°C
Rel
Hum
%
Delta-T
°C
Wind Press
QNH
hPa
Press
MSL
hPa
Rain since
9am
mm
Dir  Spd
km/h
Gust
km/h
Spd
kts
Gust
kts
20/07:30am 7.5 4.0 5.3 86 1.0 WNW 13 22 7 12 1023.6 1023.6 2.0
20/07:00am 6.7 4.2 4.7 87 0.9 NW 7 19 4 10 1023.4 1023.4 2.0
20/06:30am 6.4 4.4 4.4 87 0.9 N 4 7 2 4 1023.4 1023.4 2.0
20/06:00am 6.2 4.2 4.2 87 0.9 NW 4 7 2 4 1023.3 1023.3 2.0
20/05:30am 6.8 4.8 4.5 85 1.0 NW 4 6 2 3 1023.2 1023.2 2.0
20/05:00am 7.1 4.6 4.8 85 1.0 W 7 15 4 8 1023.4 1023.4 2.0
20/04:30am 6.6 4.1 3.8 82 1.2 WNW 6 11 3 6 1023.4 1023.4 2.0
20/04:00am 7.7 4.8 4.5 80 1.4 SW 9 19 5 10 1023.6 1023.6 2.0
20/03:30am 7.7 3.2 4.3 79 1.5 SW 17 28 9 15 1024.0 1024.0 1.6
20/03:00am 7.8 4.4 3.8 76 1.7 WSW 11 17 6 9 1024.1 1024.1 1.6
20/02:30am 7.6 3.4 4.0 78 1.6 WSW 15 24 8 13 1024.6 1024.6 1.6
20/02:00am 7.3 4.2 3.4 76 1.6 W 9 13 5 7 1024.8 1024.8 1.6
20/01:30am 7.4 4.6 3.1 74 1.8 WSW 7 11 4 6 1024.9 1024.9 1.6
20/01:00am 8.6 4.3 3.2 69 2.3 WSW 15 22 8 12 1025.0 1025.0 1.6
20/12:30am 8.7 4.2 4.1 73 2.0 S 17 26 9 14 1025.1 1025.1 1.6
20/12:00am 9.2 4.9 3.2 66 2.6 SSW 15 26 8 14 1025.1 1025.1 1.6
 
Date/Time
EST
Temp
°C
App
Temp
°C
Dew
Point
°C
Rel
Hum
%
Delta-T
°C
Wind Press
QNH
hPa
Press
MSL
hPa
Rain since
9am
mm
Dir  Spd
km/h
Gust
km/h
Spd
kts
Gust
kts
19/11:30pm 9.6 3.8 2.5 61 3.0 SSW 22 35 12 19 1025.0 1025.0 1.6
19/11:00pm 9.3 4.2 2.9 64 2.7 SSW 19 28 10 15 1025.1 1025.1 1.6
19/10:30pm 9.4 4.0 2.3 61 3.0 SW 20 32 11 17 1025.3 1025.3 1.6
19/10:00pm 9.6 4.8 2.5 61 3.0 SSW 17 33 9 18 1025.3 1025.3 1.6
19/09:30pm 9.7 3.6 3.0 63 2.9 SSW 24 37 13 20 1025.1 1025.1 1.6
19/09:00pm 9.6 3.1 2.5 61 3.0 SW 26 43 14 23 1025.0 1025.0 1.6
19/08:30pm 9.2 3.1 2.5 63 2.8 SW 24 35 13 19 1024.9 1024.9 1.6
19/08:00pm 9.4 3.9 4.0 69 2.4 SSW 22 37 12 20 1024.7 1024.7 1.6
19/07:30pm 8.5 3.3 3.8 72 2.0 SW 20 37 11 20 1024.7 1024.7 1.6
19/07:00pm 9.2 2.8 3.4 67 2.5 SW 26 41 14 22 1024.4 1024.4 1.4
19/06:30pm 8.4 1.5 4.4 76 1.8 SSW 30 50 16 27 1024.4 1024.4 1.4
19/06:26pm 9.1 2.6 4.7 74 2.0 SW 28 50 15 27 1024.3 1024.3 1.2
19/06:00pm 8.6 3.4 3.6 71 2.1 SSW 20 32 11 17 1023.7 1023.7 1.2
19/05:30pm 9.3 4.0 3.1 65 2.7 SW 20 37 11 20 1023.3 1023.3 1.2
19/05:00pm 10.1 4.1 3.6 64 2.8 SW 24 39 13 21 1023.0 1023.0 1.2
19/04:30pm 10.4 3.3 3.7 63 2.9 SW 30 52 16 28 1022.7 1022.7 1.2
19/04:00pm 11.3 3.6 2.3 54 3.8 SW 32 56 17 30 1022.4 1022.4 1.2
19/03:30pm 11.7 4.6 3.7 58 3.6 SW 30 50 16 27 1022.3 1022.3 1.2
19/03:00pm 11.5 4.3 2.8 55 3.8 SW 30 48 16 26 1021.8 1021.8 1.2
19/02:30pm 11.6 4.3 2.6 54 3.9 SSW 30 50 16 27 1021.5 1021.5 1.2
19/02:00pm 11.6 4.9 3.9 59 3.4 SSW 28 50 15 27 1020.9 1020.9 1.2
19/01:30pm 11.9 5.5 5.1 63 3.1 SSW 28 52 15 28 1020.9 1020.9 1.2
19/01:00pm 11.9 4.6 4.4 60 3.4 SSW 32 52 17 28 1020.5 1020.5 1.2
19/12:42pm 11.9 4.6 4.6 61 3.3 SSW 32 52 17 28 1020.4 1020.4 1.2
19/12:30pm 11.9 4.5 4.9 62 3.2 SSW 33 48 18 26 1020.4 1020.4 1.2
19/12:03pm 11.2 3.7 4.4 63 3.1 SSW 33 54 18 29 1020.0 1020.0 1.2
19/12:00pm 11.3 4.0 4.7 64 3.0 SSW 32 48 17 26 1020.0 1020.0 1.2
19/11:31am 11.1 3.2 4.3 63 3.0 SSW 35 54 19 29 1019.5 1019.5 1.2
19/11:30am 11.0 2.7 4.0 62 3.1 SSW 37 54 20 29 1019.4 1019.4 1.2
19/11:00am 11.2 3.7 4.7 64 2.9 SSW 33 54 18 29 1018.8 1018.8 1.2
19/10:30am 10.8 2.9 4.3 64 2.9 SSW 35 61 19 33 1017.8 1017.8 1.2
19/10:00am 8.7 0.5 4.5 75 1.8 SSW 37 57 20 31 1017.7 1017.7 1.2
19/09:30am 6.2 -2.5 4.2 87 0.9 SSW 39 72 21 39 1017.5 1017.5 1.0
19/09:00am 9.7 0.8 3.2 64 2.8 SW 39 59 21 32 1016.6 1016.6 9.8
19/08:30am 10.1 0.8 2.7 60 3.2 SW 41 65 22 35 1015.8 1015.8 9.8
19/08:00am 9.7 1.5 2.6 61 3.0 SW 35 61 19 33 1015.5 1015.5 9.8
19/07:34am 9.5 1.4 3.0 64 2.8 SW 35 56 19 30 1015.0 1015.0 9.8
19/07:30am 9.6 1.5 3.4 65 2.7 SW 35 50 19 27 1015.0 1015.0 9.8
19/07:02am 8.9 1.2 3.5 69 2.3 SW 33 54 18 29 1014.5 1014.5 9.8
19/07:00am 8.6 0.9 3.4 70 2.2 SW 33 48 18 26 1014.6 1014.6 9.8
19/06:30am 9.0 0.5 3.4 68 2.4 SW 37 70 20 38 1014.2 1014.2 9.4
19/06:23am 9.7 1.6 3.2 64 2.8 SW 35 70 19 38 1013.7 1013.7 9.4
19/06:00am 9.2 1.4 1.9 60 3.0 SW 32 50 17 27 1013.8 1013.8 9.4
19/05:30am 9.8 0.9 2.9 62 3.0 SW 39 61 21 33 1013.1 1013.2 9.4
19/05:00am 9.7 1.1 2.8 62 3.0 SW 37 57 20 31 1012.6 1012.7 9.4
19/04:35am 9.4 1.0 3.8 68 2.4 SW 37 56 20 30 1012.5 1012.6 9.4
19/04:30am 9.4 0.6 3.8 68 2.4 SW 39 57 21 31 1012.2 1012.3 9.4
19/04:00am 8.7 0.3 3.9 72 2.1 SW 37 61 20 33 1011.9 1012.0 9.2
19/03:30am 10.1 1.7 3.8 65 2.8 SW 37 69 20 37 1011.2 1011.3 8.6
19/03:27am 10.0 2.1 4.2 67 2.6 SW 35 69 19 37 1011.1 1011.2 8.6
19/03:02am 9.7 3.2 4.7 71 2.2 SW 28 50 15 27 1011.0 1011.1 8.6
19/03:00am 9.8 3.3 4.8 71 2.2 SW 28 46 15 25 1011.1 1011.2 8.6
19/02:38am 9.2 2.3 4.4 72 2.1 SW 30 54 16 29 1011.0 1011.1 8.6
19/02:30am 8.9 2.3 4.3 73 2.0 SW 28 43 15 23 1011.2 1011.3 8.6
19/02:00am 7.4 0.8 4.2 80 1.4 WSW 28 85 15 46 1011.6 1011.7 8.2
19/01:58am 7.8 2.8 4.6 80 1.4 W 20 76 11 41 1011.5 1011.6 8.2
19/01:30am 7.4 3.0 4.9 84 1.1 W 17 24 9 13 1011.0 1011.1 8.2
19/01:00am 7.8 3.3 4.2 78 1.6 W 17 28 9 15 1010.9 1011.0 5.8
19/12:30am 7.9 1.2 3.8 75 1.8 WSW 28 43 15 23 1010.5 1010.6 5.8
19/12:24am 8.1 1.4 3.6 73 1.9 WSW 28 50 15 27 1010.3 1010.4 5.8
19/12:00am 7.8 3.4 4.6 80 1.4 WSW 17 28 9 15 1010.2 1010.3 5.6
 
Date/Time
EST
Temp
°C
App
Temp
°C
Dew
Point
°C
Rel
Hum
%
Delta-T
°C
Wind Press
QNH
hPa
Press
MSL
hPa
Rain since
9am
mm
Dir  Spd
km/h
Gust
km/h
Spd
kts
Gust
kts
18/11:30pm 7.1 2.3 4.4 83 1.2 WNW 19 32 10 17 1010.2 1010.3 5.6
18/11:00pm 7.6 2.6 4.6 81 1.3 WNW 20 33 11 18 1010.0 1010.1 4.4
18/10:30pm 7.8 2.9 5.1 83 1.2 WNW 20 30 11 16 1009.6 1009.7 4.2
18/10:00pm 7.4 2.0 4.7 83 1.2 WNW 22 33 12 18 1009.5 1009.6 3.4
18/09:30pm 7.2 2.4 4.5 83 1.2 W 19 35 10 19 1010.0 1010.1 3.4
18/09:00pm 7.2 2.8 4.5 83 1.2 WNW 17 33 9 18 1009.2 1009.3 1.8
18/08:30pm 7.2 2.4 4.7 84 1.1 WNW 19 33 10 18 1009.3 1009.4 1.8
18/08:00pm 6.1 2.6 3.4 83 1.1 WNW 11 19 6 10 1009.4 1009.5 1.4
18/07:30pm 6.8 0.1 3.8 81 1.3 W 28 52 15 28 1009.5 1009.6 1.4
18/07:00pm 7.7 2.5 3.6 75 1.8 WNW 20 32 11 17 1009.1 1009.2 0.8
18/06:30pm 7.1 0.3 3.2 76 1.6 W 28 48 15 26 1008.4 1008.5 0.8
18/06:11pm 8.0 1.3 3.7 74 1.8 W 28 50 15 27 1008.5 1008.6 0.6
18/06:00pm 8.5 3.0 3.8 72 2.0 W 22 33 12 18 1008.2 1008.3 0.4
18/05:30pm 9.1 4.1 3.7 69 2.3 WNW 19 28 10 15 1008.1 1008.2 0.4
18/05:00pm 9.2 4.6 3.6 68 2.4 WNW 17 32 9 17 1007.4 1007.5 0.4
18/04:30pm 9.5 4.9 3.7 67 2.5 W 17 32 9 17 1007.3 1007.4 0.4
18/04:00pm 10.2 5.1 3.3 62 3.0 W 19 32 10 17 1006.9 1007.0 0.2
18/03:30pm 10.4 2.9 3.4 62 3.1 W 32 52 17 28 1006.6 1006.7 0.2
18/03:10pm 11.1 4.4 3.9 61 3.2 W 28 48 15 26 1006.2 1006.3 0.2
18/03:00pm 10.8 5.5 4.9 67 2.7 W 22 35 12 19 1006.4 1006.5 0.2
18/02:30pm 9.7 2.9 4.9 72 2.2 W 30 56 16 30 1006.2 1006.3 0.2
18/02:11pm 11.2 4.0 3.0 57 3.6 WNW 30 52 16 28 1005.9 1006.0 0.0
18/02:00pm 11.6 4.8 2.9 55 3.8 WNW 28 43 15 23 1006.0 1006.1 0.0
18/01:30pm 11.9 3.9 3.7 57 3.7 WNW 35 56 19 30 1006.1 1006.2 0.0
18/01:10pm 12.2 5.5 3.4 55 3.9 WNW 28 56 15 30 1005.9 1006.0 0.0
18/01:00pm 11.4 5.5 3.9 60 3.4 WNW 24 37 13 20 1006.1 1006.2 0.0
18/12:30pm 12.2 4.5 3.4 55 3.9 WNW 33 54 18 29 1006.3 1006.4 0.0
18/12:01pm 12.4 5.8 4.4 58 3.6 WNW 28 48 15 26 1006.9 1007.0 0.0
18/12:00pm 12.5 6.4 4.7 59 3.6 WNW 26 48 14 26 1006.9 1007.0 0.0
18/11:56am 12.2 5.6 4.2 58 3.6 WNW 28 48 15 26 1006.9 1007.0 0.0
18/11:30am 11.5 4.9 4.3 61 3.2 WNW 28 39 15 21 1007.0 1007.1 0.0
18/11:00am 11.8 6.5 4.8 62 3.2 WNW 22 37 12 20 1007.0 1007.1 0.0
18/10:37am 11.2 4.6 4.4 63 3.1 WNW 28 48 15 26 1007.0 1007.1 0.0
18/10:30am 11.3 6.0 5.0 65 2.9 WNW 22 41 12 22 1007.1 1007.2 0.0
18/10:00am 11.4 6.8 5.7 68 2.7 WNW 19 32 10 17 1007.3 1007.4 0.0
18/09:30am 10.5 5.9 5.5 71 2.3 WNW 19 37 10 20 1007.2 1007.3 0.0
18/09:00am 10.6 7.2 6.0 73 2.1 WNW 13 22 7 12 1007.2 1007.3 3.2
18/08:30am 9.9 6.1 5.9 76 1.8 WNW 15 28 8 15 1007.1 1007.2 3.2
18/08:00am 9.0 5.2 5.7 80 1.5 WNW 15 24 8 13 1006.9 1007.0 3.2
18/07:30am 9.1 5.3 5.8 80 1.5 NW 15 26 8 14 1006.6 1006.7 3.2
18/07:00am 9.2 5.5 6.3 82 1.3 WNW 15 24 8 13 1006.5 1006.6 3.2
18/06:30am 9.1 5.8 6.4 83 1.2 WNW 13 20 7 11 1006.2 1006.3 3.2
18/06:00am 9.1 5.8 6.4 83 1.3 WNW 13 22 7 12 1005.9 1006.0 3.2
18/05:30am 9.5 5.8 6.4 81 1.4 WNW 15 30 8 16 1006.1 1006.2 3.2
18/05:00am 9.4 6.2 6.7 83 1.3 WNW 13 22 7 12 1006.0 1006.1 3.2
18/04:30am 9.4 6.2 6.8 84 1.2 WNW 13 24 7 13 1005.9 1006.0 3.2
18/04:00am 9.3 5.4 7.1 86 1.0 WNW 17 26 9 14 1005.7 1005.7 3.2
18/03:30am 8.9 5.4 7.0 88 0.9 WNW 15 26 8 14 1005.8 1005.9 3.2
18/03:00am 8.8 4.8 6.8 87 0.9 WNW 17 30 9 16 1005.8 1005.9 3.2
18/02:30am 9.2 4.3 7.0 86 1.0 WNW 22 33 12 18 1006.1 1006.2 3.0
18/02:00am 9.4 5.0 6.7 83 1.3 WNW 19 26 10 14 1006.2 1006.3 2.4
18/01:30am 10.5 5.4 5.9 73 2.1 NW 22 37 12 20 1005.9 1006.0 1.4
18/01:00am 12.2 5.3 4.4 59 3.6 NNW 30 61 16 33 1005.0 1005.0 0.0
18/12:32am 13.6 6.7 2.8 48 4.8 NNW 28 46 15 25 1004.6 1004.6 0.0
18/12:30am 13.6 7.1 2.5 47 4.9 NNW 26 46 14 25 1004.5 1004.5 0.0
18/12:00am 13.7 6.4 2.3 46 5.0 NNW 30 50 16 27 1004.8 1004.8 0.0
 
Date/Time
EST
Temp
°C
App
Temp
°C
Dew
Point
°C
Rel
Hum
%
Delta-T
°C
Wind Press
QNH
hPa
Press
MSL
hPa
Rain since
9am
mm
Dir  Spd
km/h
Gust
km/h
Spd
kts
Gust
kts
17/11:30pm 13.5 6.5 2.1 46 5.0 N 28 52 15 28 1005.0 1005.0 0.0
17/11:29pm 13.4 6.4 2.0 46 5.0 N 28 52 15 28 1005.0 1005.0 0.0
17/11:00pm 13.0 7.2 2.3 48 4.7 N 22 48 12 26 1005.8 1005.9 0.0
17/10:30pm 12.7 7.5 2.6 50 4.4 N 19 33 10 18 1006.5 1006.6 0.0
17/10:00pm 12.6 7.4 2.7 51 4.4 N 19 39 10 21 1006.8 1006.9 0.0
17/09:30pm 12.4 7.6 2.8 52 4.2 N 17 35 9 19 1007.1 1007.2 0.0
17/09:00pm 12.0 7.6 2.7 53 4.1 N 15 41 8 22 1007.4 1007.5 0.0
17/08:30pm 12.0 7.6 2.7 53 4.1 N 15 28 8 15 1007.8 1007.9 0.0
17/08:00pm 12.2 7.4 2.6 52 4.2 N 17 30 9 16 1008.2 1008.3 0.0
17/07:30pm 12.3 8.0 3.0 53 4.1 N 15 30 8 16 1008.5 1008.6 0.0
17/07:00pm 12.5 8.1 2.7 51 4.3 N 15 26 8 14 1008.8 1008.9 0.0
17/06:30pm 12.6 8.6 2.7 51 4.3 N 13 26 7 14 1008.7 1008.8 0.0
17/06:00pm 13.0 8.2 2.6 49 4.6 N 17 30 9 16 1008.6 1008.7 0.0
17/05:30pm 13.3 8.5 2.5 48 4.7 N 17 28 9 15 1008.7 1008.8 0.0
17/05:00pm 13.4 8.0 2.3 47 4.9 NNW 20 35 11 19 1008.8 1008.9 0.0
17/04:30pm 13.6 8.5 2.8 48 4.8 NNW 19 35 10 19 1008.8 1008.9 0.0
17/04:00pm 13.8 8.6 2.7 47 4.9 NNW 19 35 10 19 1009.0 1009.1 0.0
17/03:30pm 14.8 9.6 3.3 46 5.2 NNW 20 43 11 23 1009.0 1009.1 0.0
17/03:00pm 15.0 9.4 3.5 46 5.2 NW 22 35 12 19 1009.5 1009.6 0.0
17/02:30pm 15.4 11.2 3.9 46 5.3 NNW 15 37 8 20 1009.6 1009.7 0.0
17/02:00pm 14.7 9.4 3.2 46 5.2 NNW 20 37 11 20 1009.8 1009.9 0.0
17/01:30pm 14.5 8.9 3.3 47 5.1 NNW 22 37 12 20 1010.1 1010.2 0.0
17/01:00pm 14.6 9.2 4.6 51 4.7 NW 22 32 12 17 1010.7 1010.8 0.0
17/12:30pm 14.2 8.5 4.8 53 4.4 NW 24 37 13 20 1011.1 1011.2 0.0
17/12:00pm 14.1 9.3 4.4 52 4.5 NW 19 35 10 19 1011.6 1011.7 0.0
17/11:30am 13.6 8.8 4.5 54 4.2 NW 19 33 10 18 1011.9 1012.0 0.0
17/11:00am 12.9 7.6 5.1 59 3.6 NW 22 39 12 21 1012.4 1012.5 0.0
17/10:30am 12.4 8.2 5.8 64 3.1 NW 17 30 9 16 1012.6 1012.7 0.0
17/10:00am 11.4 7.1 5.3 66 2.8 NNW 17 28 9 15 1012.6 1012.7 0.0
17/09:30am 11.2 7.0 5.5 68 2.6 NW 17 28 9 15 1012.8 1012.9 0.0
17/09:00am 10.5 6.6 5.5 71 2.3 NW 15 26 8 14 1013.1 1013.2 0.2
17/08:30am 9.4 6.7 5.6 77 1.7 NNW 9 19 5 10 1013.1 1013.2 0.2
17/08:00am 8.4 5.3 5.5 82 1.3 NNW 11 17 6 9 1013.0 1013.1 0.2

Latest Capital City Observations: Canberra | Sydney | Melbourne | Brisbane | Adelaide | Perth | Hobart | Darwin

Other Formats:

Comma delimited format used in spreadsheet applications
http://www.bom.gov.au/fwo/IDV60901/IDV60901.94898.axf

JavaScript Object Notation format (JSON) in row-major order
http://www.bom.gov.au/fwo/IDV60901/IDV60901.94898.json